Hauptseite
METAR-TAF:

METAR-TAF

Flughäfen :

Flughafen Kassel-Calden

Kassel, Deutschland

Breite: 51-24N, Länge: 009-23E, Höhe: 277 m

Beobachtung

Neuester Wetterbericht von vor 9 Stunden und 35 Minuten, um 18:50 UTC
Wind 6 kt aus Süd
Temperatur 2°C
Luftfeuchtigkeit 93%
Luftdruck 1012 hPa
Sichtweite 10 km oder mehr
keine Wolken unter 1500 m und keine Kumulonimbus oder Gewitterwolken

METAR: EDVK 161850Z 19006KT CAVOK 02/01 Q1012

Zeit: 05:25 (04:25 UTC)

Prognose

Neuester Wetterbericht von vor 11 Stunden und 25 Minuten, um 17:00 UTC
Gültige Prognose vom 16 um 18 UTC bis 17 um 03 UTC
Wind 5 kt aus Südost
Sichtweite 10 km oder mehr
Leicht bewölkt in der Höhe von 2000 ft
Wahrscheinlichkeit 30% :
Zeitweise
vom 16 um 18 UTC bis 17 um 03 UTC
Sichtweite: 3500 m
feuchter Dunst

TAF: EDVK 161700Z 1618/1703 14005KT 9999 FEW020 PROB30 TEMPO 1618/1703 3500 BR

Wetterbeobachtungen und Prognosen von mehr als 4000 Flughäfen (METAR und TAF Bericht).

Die verfügbaren Stationen werden durch gelbe und rote Markierungen auf der Karte dargestellt.

Führen Sie die Maus auf sie, um den Namen der Station zu sehen.

Darauf klicken, um die Beobachtung von Wetterbeobachtungen und Prognosen zu sehen.

Um die Karte zu ändern : klicken Sie auf den grünen Tasten mit einem schwarzen Kreuz Zum Vergrößern, auf den grünen Button mit einem Gedankenstrich zu verkleinern, oder auf die grünen Pfeile für benachbarte Karten.


METAR-TAF: